Terminal Aerodrome Forecast
Issued by NWS Wichita, KS

Home | Current Version | Previous Version | Text Only | Print | Product List | Glossary Off
Versions: 1 2 3 4 5 6 7 8 9 10 11 12 13 14 15 16

000
FTUS43 KICT 051515 AAB
TAFICT
TAF AMD
KICT 051515Z 0515/0612 17017KT P6SM SCT080 BKN300
     FM051800 19022G26KT P6SM SCT080 BKN300
     FM060200 18013KT P6SM SCT070 BKN300=

USA.gov is the U.S. government's official web portal to all federal, state and local government web resources and services.